sensor_id;sensor_type;location;lat;lon;timestamp;P1;durP1;ratioP1;P2;durP2;ratioP2
14143;SDS011;7152;48.348;10.980;2023-03-23T16:45:40;2.20;;;2.00;;
14143;SDS011;7152;48.348;10.980;2023-03-23T16:48:08;2.93;;;2.27;;
14143;SDS011;7152;48.348;10.980;2023-03-23T16:50:36;3.20;;;2.30;;
14143;SDS011;7152;48.348;10.980;2023-03-23T16:53:02;3.00;;;2.30;;
14143;SDS011;7152;48.348;10.980;2023-03-23T16:55:29;5.20;;;2.30;;
14143;SDS011;7152;48.348;10.980;2023-03-23T16:57:55;2.40;;;2.20;;
14143;SDS011;7152;48.348;10.980;2023-03-23T17:00:22;2.23;;;2.03;;
14143;SDS011;7152;48.348;10.980;2023-03-23T17:02:50;4.23;;;2.17;;
14143;SDS011;7152;48.348;10.980;2023-03-23T17:05:17;2.60;;;2.00;;
14143;SDS011;7152;48.348;10.980;2023-03-23T17:07:44;4.67;;;2.10;;
14143;SDS011;7152;48.348;10.980;2023-03-23T17:10:11;3.13;;;1.80;;
14143;SDS011;7152;48.348;10.980;2023-03-23T17:12:37;2.07;;;1.87;;
14143;SDS011;7152;48.348;10.980;2023-03-23T17:15:04;2.10;;;1.90;;
14143;SDS011;7152;48.348;10.980;2023-03-23T17:17:31;2.90;;;2.03;;
14143;SDS011;7152;48.348;10.980;2023-03-23T17:19:56;2.50;;;1.87;;
14143;SDS011;7152;48.348;10.980;2023-03-23T17:22:22;4.00;;;2.07;;
14143;SDS011;7152;48.348;10.980;2023-03-23T17:24:49;2.30;;;2.10;;
14143;SDS011;7152;48.348;10.980;2023-03-23T17:27:15;2.37;;;2.17;;
14143;SDS011;7152;48.348;10.980;2023-03-23T17:29:42;5.23;;;2.33;;
14143;SDS011;7152;48.348;10.980;2023-03-23T17:32:08;3.57;;;2.13;;
14143;SDS011;7152;48.348;10.980;2023-03-23T17:34:34;2.60;;;2.33;;
14143;SDS011;7152;48.348;10.980;2023-03-23T17:37:00;4.53;;;2.10;;
14143;SDS011;7152;48.348;10.980;2023-03-23T17:39:27;2.10;;;1.90;;
14143;SDS011;7152;48.348;10.980;2023-03-23T17:41:53;12.83;;;2.60;;
14143;SDS011;7152;48.348;10.980;2023-03-23T17:44:19;4.03;;;2.50;;
14143;SDS011;7152;48.348;10.980;2023-03-23T17:46:44;4.00;;;2.20;;
14143;SDS011;7152;48.348;10.980;2023-03-23T17:49:10;2.30;;;2.07;;
14143;SDS011;7152;48.348;10.980;2023-03-23T17:51:36;2.97;;;2.13;;
14143;SDS011;7152;48.348;10.980;2023-03-23T17:54:01;2.30;;;2.10;;
14143;SDS011;7152;48.348;10.980;2023-03-23T17:56:27;2.40;;;2.10;;
14143;SDS011;7152;48.348;10.980;2023-03-23T17:58:53;3.33;;;2.47;;
14143;SDS011;7152;48.348;10.980;2023-03-23T18:01:19;3.23;;;2.93;;
14143;SDS011;7152;48.348;10.980;2023-03-23T18:03:44;5.30;;;4.80;;
14143;SDS011;7152;48.348;10.980;2023-03-23T18:06:10;2.80;;;2.60;;
14143;SDS011;7152;48.348;10.980;2023-03-23T18:08:36;4.03;;;2.90;;
14143;SDS011;7152;48.348;10.980;2023-03-23T18:11:02;4.33;;;3.13;;
14143;SDS011;7152;48.348;10.980;2023-03-23T18:13:30;8.50;;;3.33;;
14143;SDS011;7152;48.348;10.980;2023-03-23T18:15:57;4.43;;;3.93;;
14143;SDS011;7152;48.348;10.980;2023-03-23T18:18:23;4.13;;;2.80;;
14143;SDS011;7152;48.348;10.980;2023-03-23T18:20:53;3.23;;;2.70;;
14143;SDS011;7152;48.348;10.980;2023-03-23T18:23:27;2.83;;;2.13;;
14143;SDS011;7152;48.348;10.980;2023-03-23T18:25:53;4.00;;;2.37;;
14143;SDS011;7152;48.348;10.980;2023-03-23T18:28:19;2.77;;;2.57;;
14143;SDS011;7152;48.348;10.980;2023-03-23T18:30:46;4.07;;;2.20;;
14143;SDS011;7152;48.348;10.980;2023-03-23T18:33:16;2.90;;;2.63;;
14143;SDS011;7152;48.348;10.980;2023-03-23T18:35:44;3.87;;;2.60;;
14143;SDS011;7152;48.348;10.980;2023-03-23T18:38:10;2.63;;;2.43;;
14143;SDS011;7152;48.348;10.980;2023-03-23T18:40:43;2.20;;;2.00;;
14143;SDS011;7152;48.348;10.980;2023-03-23T18:43:10;3.80;;;2.50;;
14143;SDS011;7152;48.348;10.980;2023-03-23T18:45:36;3.40;;;2.40;;
14143;SDS011;7152;48.348;10.980;2023-03-23T18:48:03;2.63;;;2.33;;
14143;SDS011;7152;48.348;10.980;2023-03-23T18:50:30;2.50;;;2.30;;
14143;SDS011;7152;48.348;10.980;2023-03-23T18:52:55;4.97;;;2.70;;
14143;SDS011;7152;48.348;10.980;2023-03-23T18:55:21;3.47;;;2.13;;
14143;SDS011;7152;48.348;10.980;2023-03-23T18:57:47;2.97;;;2.30;;
14143;SDS011;7152;48.348;10.980;2023-03-23T19:00:13;4.00;;;2.47;;
14143;SDS011;7152;48.348;10.980;2023-03-23T19:02:39;2.47;;;2.20;;
14143;SDS011;7152;48.348;10.980;2023-03-23T19:05:06;3.50;;;2.40;;
14143;SDS011;7152;48.348;10.980;2023-03-23T19:07:32;2.63;;;2.43;;
14143;SDS011;7152;48.348;10.980;2023-03-23T19:09:58;2.50;;;2.30;;
14143;SDS011;7152;48.348;10.980;2023-03-23T19:12:24;3.33;;;2.50;;
14143;SDS011;7152;48.348;10.980;2023-03-23T19:14:50;2.63;;;2.40;;
14143;SDS011;7152;48.348;10.980;2023-03-23T19:17:16;2.87;;;2.30;;
14143;SDS011;7152;48.348;10.980;2023-03-23T19:19:42;3.80;;;2.70;;
14143;SDS011;7152;48.348;10.980;2023-03-23T19:22:09;4.73;;;2.93;;
14143;SDS011;7152;48.348;10.980;2023-03-23T19:24:35;2.90;;;2.67;;
14143;SDS011;7152;48.348;10.980;2023-03-23T19:27:01;3.33;;;3.00;;
14143;SDS011;7152;48.348;10.980;2023-03-23T19:29:27;3.10;;;2.80;;
14143;SDS011;7152;48.348;10.980;2023-03-23T19:31:53;3.50;;;3.10;;
14143;SDS011;7152;48.348;10.980;2023-03-23T19:34:20;4.60;;;3.20;;
14143;SDS011;7152;48.348;10.980;2023-03-23T19:36:46;4.37;;;3.77;;
14143;SDS011;7152;48.348;10.980;2023-03-23T19:39:12;3.97;;;3.43;;
14143;SDS011;7152;48.348;10.980;2023-03-23T19:41:38;4.67;;;3.47;;
14143;SDS011;7152;48.348;10.980;2023-03-23T19:44:04;3.97;;;3.30;;
14143;SDS011;7152;48.348;10.980;2023-03-23T19:46:31;3.40;;;3.10;;
14143;SDS011;7152;48.348;10.980;2023-03-23T19:48:57;4.27;;;3.37;;
14143;SDS011;7152;48.348;10.980;2023-03-23T19:51:23;4.30;;;3.13;;
14143;SDS011;7152;48.348;10.980;2023-03-23T19:53:49;4.30;;;3.63;;
14143;SDS011;7152;48.348;10.980;2023-03-23T19:56:16;3.93;;;3.47;;
14143;SDS011;7152;48.348;10.980;2023-03-23T19:58:45;3.80;;;3.43;;
14143;SDS011;7152;48.348;10.980;2023-03-23T20:01:11;4.67;;;3.87;;
14143;SDS011;7152;48.348;10.980;2023-03-23T20:03:37;5.43;;;4.93;;
14143;SDS011;7152;48.348;10.980;2023-03-23T20:06:04;3.83;;;3.27;;
14143;SDS011;7152;48.348;10.980;2023-03-23T20:08:36;5.23;;;3.53;;
14143;SDS011;7152;48.348;10.980;2023-03-23T20:11:09;5.13;;;3.53;;
14143;SDS011;7152;48.348;10.980;2023-03-23T20:13:36;3.57;;;3.27;;
14143;SDS011;7152;48.348;10.980;2023-03-23T20:16:03;4.73;;;3.47;;
14143;SDS011;7152;48.348;10.980;2023-03-23T20:18:29;3.97;;;3.60;;
14143;SDS011;7152;48.348;10.980;2023-03-23T20:20:59;3.50;;;3.13;;
14143;SDS011;7152;48.348;10.980;2023-03-23T20:23:25;4.00;;;3.30;;
14143;SDS011;7152;48.348;10.980;2023-03-23T20:25:51;4.40;;;3.80;;
14143;SDS011;7152;48.348;10.980;2023-03-23T20:28:17;3.77;;;3.37;;
14143;SDS011;7152;48.348;10.980;2023-03-23T20:30:42;5.40;;;3.60;;
14143;SDS011;7152;48.348;10.980;2023-03-23T20:33:08;4.87;;;4.00;;
14143;SDS011;7152;48.348;10.980;2023-03-23T20:35:34;4.47;;;4.07;;
14143;SDS011;7152;48.348;10.980;2023-03-23T20:38:00;4.97;;;3.73;;
14143;SDS011;7152;48.348;10.980;2023-03-23T20:40:25;5.63;;;3.67;;
14143;SDS011;7152;48.348;10.980;2023-03-23T20:42:51;4.37;;;3.90;;
14143;SDS011;7152;48.348;10.980;2023-03-23T20:45:18;4.27;;;3.50;;
14143;SDS011;7152;48.348;10.980;2023-03-23T20:47:44;3.93;;;3.63;;
14143;SDS011;7152;48.348;10.980;2023-03-23T20:50:10;4.50;;;4.10;;
14143;SDS011;7152;48.348;10.980;2023-03-23T20:52:36;4.50;;;4.10;;
14143;SDS011;7152;48.348;10.980;2023-03-23T20:55:04;4.40;;;4.00;;
14143;SDS011;7152;48.348;10.980;2023-03-23T20:57:29;9.60;;;7.10;;
14143;SDS011;7152;48.348;10.980;2023-03-23T20:59:55;8.10;;;6.50;;
14143;SDS011;7152;48.348;10.980;2023-03-23T21:02:21;38.27;;;27.00;;
14143;SDS011;7152;48.348;10.980;2023-03-23T21:04:48;41.30;;;28.03;;
14143;SDS011;7152;48.348;10.980;2023-03-23T21:07:16;106.10;;;70.33;;
14143;SDS011;7152;48.348;10.980;2023-03-23T21:09:46;79.47;;;55.67;;
14143;SDS011;7152;48.348;10.980;2023-03-23T21:12:12;57.47;;;38.27;;
14143;SDS011;7152;48.348;10.980;2023-03-23T21:14:38;81.87;;;58.93;;
14143;SDS011;7152;48.348;10.980;2023-03-23T21:17:05;46.17;;;32.90;;
14143;SDS011;7152;48.348;10.980;2023-03-23T21:19:31;10.30;;;8.20;;
14143;SDS011;7152;48.348;10.980;2023-03-23T21:21:57;12.10;;;11.10;;
14143;SDS011;7152;48.348;10.980;2023-03-23T21:24:24;12.57;;;11.50;;
14143;SDS011;7152;48.348;10.980;2023-03-23T21:26:52;5.97;;;5.47;;
14143;SDS011;7152;48.348;10.980;2023-03-23T21:29:19;7.20;;;5.17;;
14143;SDS011;7152;48.348;10.980;2023-03-23T21:31:46;5.13;;;4.53;;
14143;SDS011;7152;48.348;10.980;2023-03-23T21:34:12;5.40;;;4.23;;
14143;SDS011;7152;48.348;10.980;2023-03-23T21:36:38;5.43;;;4.57;;
14143;SDS011;7152;48.348;10.980;2023-03-23T21:39:03;6.27;;;5.00;;
14143;SDS011;7152;48.348;10.980;2023-03-23T21:41:30;6.27;;;4.63;;
14143;SDS011;7152;48.348;10.980;2023-03-23T21:43:58;5.20;;;4.70;;
14143;SDS011;7152;48.348;10.980;2023-03-23T21:46:25;5.27;;;4.73;;
14143;SDS011;7152;48.348;10.980;2023-03-23T21:48:51;6.97;;;4.80;;
14143;SDS011;7152;48.348;10.980;2023-03-23T21:51:19;5.97;;;5.17;;
14143;SDS011;7152;48.348;10.980;2023-03-23T21:53:46;6.53;;;5.90;;
14143;SDS011;7152;48.348;10.980;2023-03-23T21:56:13;5.80;;;5.13;;
14143;SDS011;7152;48.348;10.980;2023-03-23T21:58:39;6.13;;;4.67;;
14143;SDS011;7152;48.348;10.980;2023-03-23T22:01:06;5.73;;;5.10;;
14143;SDS011;7152;48.348;10.980;2023-03-23T22:03:32;5.83;;;4.73;;
14143;SDS011;7152;48.348;10.980;2023-03-23T22:06:04;4.93;;;4.43;;
14143;SDS011;7152;48.348;10.980;2023-03-23T22:08:35;4.67;;;4.27;;
14143;SDS011;7152;48.348;10.980;2023-03-23T22:11:04;6.13;;;4.60;;
14143;SDS011;7152;48.348;10.980;2023-03-23T22:13:32;6.43;;;4.43;;
14143;SDS011;7152;48.348;10.980;2023-03-23T22:15:59;4.40;;;4.00;;
14143;SDS011;7152;48.348;10.980;2023-03-23T22:18:26;4.73;;;4.23;;
14143;SDS011;7152;48.348;10.980;2023-03-23T22:20:52;5.00;;;4.10;;
14143;SDS011;7152;48.348;10.980;2023-03-23T22:23:18;5.43;;;4.53;;
14143;SDS011;7152;48.348;10.980;2023-03-23T22:25:44;4.57;;;4.17;;
14143;SDS011;7152;48.348;10.980;2023-03-23T22:28:10;6.67;;;4.50;;
14143;SDS011;7152;48.348;10.980;2023-03-23T22:30:35;4.60;;;4.20;;
14143;SDS011;7152;48.348;10.980;2023-03-23T22:33:01;4.70;;;3.93;;
14143;SDS011;7152;48.348;10.980;2023-03-23T22:35:27;4.50;;;4.03;;
14143;SDS011;7152;48.348;10.980;2023-03-23T22:37:53;4.53;;;3.93;;
14143;SDS011;7152;48.348;10.980;2023-03-23T22:40:19;4.00;;;3.60;;
14143;SDS011;7152;48.348;10.980;2023-03-23T22:42:48;4.30;;;3.87;;
14143;SDS011;7152;48.348;10.980;2023-03-23T22:45:16;4.70;;;4.17;;
14143;SDS011;7152;48.348;10.980;2023-03-23T22:47:42;3.90;;;3.50;;
14143;SDS011;7152;48.348;10.980;2023-03-23T22:50:08;4.10;;;3.70;;
14143;SDS011;7152;48.348;10.980;2023-03-23T22:52:35;5.03;;;3.80;;
14143;SDS011;7152;48.348;10.980;2023-03-23T22:55:02;4.20;;;3.67;;
14143;SDS011;7152;48.348;10.980;2023-03-23T22:57:29;4.07;;;3.60;;
14143;SDS011;7152;48.348;10.980;2023-03-23T22:59:55;4.10;;;3.70;;
14143;SDS011;7152;48.348;10.980;2023-03-23T23:02:20;3.90;;;3.60;;
14143;SDS011;7152;48.348;10.980;2023-03-23T23:04:46;3.80;;;3.50;;
14143;SDS011;7152;48.348;10.980;2023-03-23T23:07:12;4.17;;;3.53;;
14143;SDS011;7152;48.348;10.980;2023-03-23T23:09:41;5.00;;;3.90;;
14143;SDS011;7152;48.348;10.980;2023-03-23T23:12:08;4.03;;;3.67;;
14143;SDS011;7152;48.348;10.980;2023-03-23T23:14:35;3.70;;;3.40;;
14143;SDS011;7152;48.348;10.980;2023-03-23T23:17:02;3.77;;;3.47;;
14143;SDS011;7152;48.348;10.980;2023-03-23T23:19:28;4.47;;;3.80;;
14143;SDS011;7152;48.348;10.980;2023-03-23T23:21:54;5.20;;;4.07;;
14143;SDS011;7152;48.348;10.980;2023-03-23T23:24:20;3.80;;;3.50;;
14143;SDS011;7152;48.348;10.980;2023-03-23T23:26:46;4.37;;;3.97;;
14143;SDS011;7152;48.348;10.980;2023-03-23T23:29:12;4.93;;;4.00;;
14143;SDS011;7152;48.348;10.980;2023-03-23T23:31:37;3.93;;;3.47;;
14143;SDS011;7152;48.348;10.980;2023-03-23T23:34:03;4.63;;;3.93;;
14143;SDS011;7152;48.348;10.980;2023-03-23T23:36:30;4.37;;;3.97;;
14143;SDS011;7152;48.348;10.980;2023-03-23T23:38:59;5.03;;;4.00;;
14143;SDS011;7152;48.348;10.980;2023-03-23T23:41:27;3.87;;;3.47;;
14143;SDS011;7152;48.348;10.980;2023-03-23T23:43:54;4.37;;;3.77;;
14143;SDS011;7152;48.348;10.980;2023-03-23T23:46:20;5.10;;;4.17;;
14143;SDS011;7152;48.348;10.980;2023-03-23T23:48:46;4.57;;;3.53;;
14143;SDS011;7152;48.348;10.980;2023-03-23T23:51:11;4.17;;;3.50;;
14143;SDS011;7152;48.348;10.980;2023-03-23T23:53:41;5.13;;;3.67;;
14143;SDS011;7152;48.348;10.980;2023-03-23T23:56:08;4.60;;;4.03;;
14143;SDS011;7152;48.348;10.980;2023-03-23T23:58:35;4.13;;;3.73;;
